createdAt,value
2022-12-02T00:00:11.352Z,22.83
2022-12-02T00:02:40.656Z,18.15
2022-12-02T00:05:28.200Z,20.52
2022-12-02T00:07:58.784Z,20.63
2022-12-02T00:10:32.453Z,21.55
2022-12-02T00:13:21.477Z,19.88
2022-12-02T00:16:00.455Z,20.27
2022-12-02T00:18:28.630Z,20.20
2022-12-02T00:20:57.274Z,22.50
2022-12-02T00:23:25.822Z,20.45
2022-12-02T00:25:54.863Z,20.15
2022-12-02T00:28:22.829Z,20.25
2022-12-02T00:30:50.777Z,18.90
2022-12-02T00:33:19.544Z,19.65
2022-12-02T00:35:47.447Z,21.55
2022-12-02T00:38:15.398Z,20.30
2022-12-02T00:40:43.941Z,19.05
2022-12-02T00:43:30.262Z,18.73
2022-12-02T00:46:17.852Z,18.75
2022-12-02T00:48:45.894Z,17.63
2022-12-02T00:51:14.075Z,18.40
2022-12-02T00:53:42.123Z,18.08
2022-12-02T00:56:09.841Z,17.58
2022-12-02T00:58:37.720Z,17.17
2022-12-02T01:01:05.876Z,18.55
2022-12-02T01:03:33.918Z,17.92
2022-12-02T01:06:02.079Z,16.05
2022-12-02T01:08:30.406Z,15.15
2022-12-02T01:10:59.007Z,19.27
2022-12-02T01:13:28.365Z,15.70
2022-12-02T01:15:56.518Z,17.15
2022-12-02T01:18:24.373Z,16.60
2022-12-02T01:20:52.417Z,16.17
2022-12-02T01:23:20.447Z,16.73
2022-12-02T01:25:48.798Z,17.08
2022-12-02T01:28:17.659Z,15.45
2022-12-02T01:30:45.818Z,15.82
2022-12-02T01:33:13.761Z,15.20
2022-12-02T01:35:41.744Z,15.35
2022-12-02T01:38:09.782Z,15.57
2022-12-02T01:40:38.035Z,17.45
2022-12-02T01:43:06.224Z,14.75
2022-12-02T01:45:34.245Z,14.95
2022-12-02T01:48:02.831Z,15.07
2022-12-02T01:50:31.278Z,15.52
2022-12-02T01:52:59.147Z,16.15
2022-12-02T01:55:28.914Z,16.33
2022-12-02T01:57:58.481Z,17.35
2022-12-02T02:00:27.481Z,15.63
2022-12-02T02:02:55.509Z,15.88
2022-12-02T02:05:31.584Z,14.95
2022-12-02T02:08:09.237Z,15.07
2022-12-02T02:10:38.897Z,15.45
2022-12-02T02:13:09.049Z,15.32
2022-12-02T02:15:39.640Z,14.30
2022-12-02T02:18:08.760Z,14.95
2022-12-02T02:20:40.266Z,14.02
2022-12-02T02:23:09.116Z,14.48
2022-12-02T02:25:47.119Z,12.85
2022-12-02T02:28:18.231Z,13.10
2022-12-02T02:30:46.878Z,14.38
2022-12-02T02:33:16.767Z,14.13
2022-12-02T02:35:45.768Z,15.18
2022-12-02T02:38:18.480Z,13.93
2022-12-02T02:40:46.984Z,14.27
2022-12-02T02:43:17.555Z,13.15
2022-12-02T02:45:47.583Z,12.95
2022-12-02T02:48:16.830Z,13.73
2022-12-02T02:50:47.018Z,14.57
2022-12-02T02:53:18.855Z,13.13
2022-12-02T02:55:46.819Z,13.55
2022-12-02T02:58:15.095Z,13.68
2022-12-02T03:00:52.253Z,14.95
2022-12-02T03:03:22.475Z,12.68
2022-12-02T03:05:52.336Z,12.70
2022-12-02T03:08:21.421Z,13.27
2022-12-02T03:10:49.893Z,13.60
2022-12-02T03:13:18.154Z,13.52
2022-12-02T03:15:46.160Z,12.52
2022-12-02T03:18:16.644Z,13.52
2022-12-02T03:20:44.574Z,12.20
2022-12-02T03:23:12.563Z,11.77
2022-12-02T03:25:40.530Z,13.52
2022-12-02T03:28:08.319Z,13.30
2022-12-02T03:30:36.254Z,12.85
2022-12-02T03:33:04.355Z,11.65
2022-12-02T03:35:32.518Z,12.05
2022-12-02T03:38:00.376Z,13.25
2022-12-02T03:40:28.376Z,11.90
2022-12-02T03:42:56.317Z,13.27
2022-12-02T03:45:24.293Z,11.75
2022-12-02T03:47:52.175Z,12.50
2022-12-02T03:50:20.128Z,11.23
2022-12-02T03:52:48.355Z,11.60
2022-12-02T03:55:16.300Z,12.25
2022-12-02T03:57:44.302Z,12.40
2022-12-02T04:00:16.125Z,12.32
2022-12-02T04:02:44.534Z,13.30
2022-12-02T04:05:12.722Z,11.55
2022-12-02T04:07:40.496Z,11.52
2022-12-02T04:10:09.025Z,11.40
2022-12-02T04:12:36.796Z,9.85
2022-12-02T04:15:05.126Z,11.23
2022-12-02T04:17:33.244Z,10.25
2022-12-02T04:20:02.312Z,11.65
2022-12-02T04:22:30.171Z,11.10
2022-12-02T04:25:00.036Z,11.48
2022-12-02T04:27:28.419Z,10.68
2022-12-02T04:29:56.515Z,11.45
2022-12-02T04:32:24.371Z,10.70
2022-12-02T04:34:52.830Z,10.57
2022-12-02T04:37:21.101Z,11.18
2022-12-02T04:39:49.190Z,10.93
2022-12-02T04:42:17.092Z,11.43
2022-12-02T04:44:44.866Z,9.48
2022-12-02T04:47:12.665Z,10.55
2022-12-02T04:49:40.688Z,11.40
2022-12-02T04:52:08.801Z,11.13
2022-12-02T04:54:36.833Z,10.73
2022-12-02T04:57:04.759Z,11.13
2022-12-02T04:59:32.648Z,10.07
2022-12-02T05:02:00.654Z,10.18
2022-12-02T05:04:28.660Z,9.52
2022-12-02T05:06:56.500Z,11.57
2022-12-02T05:09:24.385Z,10.60
2022-12-02T05:11:52.210Z,11.27
2022-12-02T05:14:20.130Z,10.35
2022-12-02T05:16:47.947Z,10.73
2022-12-02T05:19:15.631Z,9.00
2022-12-02T05:21:43.753Z,10.85
2022-12-02T05:24:12.565Z,9.70
2022-12-02T05:26:40.467Z,10.35
2022-12-02T05:29:08.510Z,11.75
2022-12-02T05:31:36.650Z,9.65
2022-12-02T05:34:04.557Z,9.82
2022-12-02T05:36:32.420Z,8.80
2022-12-02T05:39:00.247Z,10.73
2022-12-02T05:41:28.106Z,10.60
2022-12-02T05:44:33.750Z,11.02
2022-12-02T05:47:11.287Z,9.32
2022-12-02T05:49:39.403Z,9.73
2022-12-02T05:52:23.837Z,9.52
2022-12-02T05:54:58.434Z,8.38
2022-12-02T05:57:28.905Z,10.85
2022-12-02T06:00:11.168Z,10.77
2022-12-02T06:02:45.683Z,10.82
2022-12-02T06:05:19.555Z,9.27
2022-12-02T06:07:50.546Z,9.05
2022-12-02T06:10:48.234Z,9.68
2022-12-02T06:13:20.998Z,8.88
2022-12-02T06:15:49.533Z,7.95
2022-12-02T06:18:21.488Z,9.88
2022-12-02T06:21:03.319Z,8.15
2022-12-02T06:23:32.840Z,10.13
2022-12-02T06:26:00.692Z,10.55
2022-12-02T06:28:50.229Z,9.32
2022-12-02T06:31:24.102Z,9.13
2022-12-02T06:33:53.482Z,9.27
2022-12-02T06:36:27.465Z,9.93
2022-12-02T06:38:56.070Z,10.55
2022-12-02T06:41:32.086Z,10.43
2022-12-02T06:44:21.684Z,9.65
2022-12-02T06:46:49.576Z,10.50
2022-12-02T06:49:20.992Z,9.20
2022-12-02T06:51:56.992Z,10.85
2022-12-02T06:54:30.560Z,10.50
2022-12-02T06:56:59.651Z,9.02
2022-12-02T06:59:27.770Z,10.57
2022-12-02T07:01:57.592Z,9.73
2022-12-02T07:04:36.640Z,11.18
2022-12-02T07:07:31.272Z,12.02
2022-12-02T07:10:01.608Z,10.82
2022-12-02T07:12:42.679Z,10.75
2022-12-02T07:15:10.500Z,11.47
2022-12-02T07:17:40.291Z,10.40
2022-12-02T07:20:09.295Z,10.82
2022-12-02T07:22:41.015Z,12.30
2022-12-02T07:25:08.787Z,11.30
2022-12-02T07:27:41.881Z,11.30
2022-12-02T07:30:31.732Z,9.82
2022-12-02T07:33:00.165Z,10.82
2022-12-02T07:35:28.855Z,10.23
2022-12-02T07:37:58.289Z,9.93
2022-12-02T07:40:28.339Z,10.68
2022-12-02T07:42:56.467Z,10.65
2022-12-02T07:45:24.486Z,11.88
2022-12-02T07:47:52.971Z,11.27
2022-12-02T07:50:20.939Z,10.23
2022-12-02T07:52:48.661Z,11.30
2022-12-02T07:55:22.758Z,11.48
2022-12-02T07:57:53.853Z,9.68
2022-12-02T08:00:22.360Z,10.10
2022-12-02T08:02:50.323Z,9.23
2022-12-02T08:05:18.700Z,10.68
2022-12-02T08:07:46.647Z,10.07
2022-12-02T08:10:14.401Z,10.50
2022-12-02T08:12:43.000Z,10.15
2022-12-02T08:15:12.394Z,8.85
2022-12-02T08:17:40.684Z,9.52
2022-12-02T08:20:10.868Z,9.63
2022-12-02T08:22:38.827Z,8.55
2022-12-02T08:25:07.217Z,10.10
2022-12-02T08:27:35.058Z,10.10
2022-12-02T08:30:03.184Z,9.40
2022-12-02T08:32:31.222Z,9.98
2022-12-02T08:34:59.277Z,9.38
2022-12-02T08:37:27.204Z,10.93
2022-12-02T08:39:55.068Z,10.25
2022-12-02T08:42:22.928Z,9.90
2022-12-02T08:44:51.073Z,9.50
2022-12-02T08:47:19.102Z,8.95
2022-12-02T08:49:46.942Z,9.07
2022-12-02T08:52:14.899Z,9.70
2022-12-02T08:54:45.822Z,10.52
2022-12-02T08:57:13.822Z,10.27
2022-12-02T08:59:42.948Z,11.20
2022-12-02T09:02:10.781Z,9.50
2022-12-02T09:04:38.719Z,10.82
2022-12-02T09:07:06.677Z,9.65
2022-12-02T09:09:34.436Z,9.80
2022-12-02T09:12:02.553Z,10.02
2022-12-02T09:14:30.531Z,9.45
2022-12-02T09:16:58.488Z,10.02
2022-12-02T09:19:26.420Z,9.63
2022-12-02T09:21:54.325Z,9.38
2022-12-02T09:24:23.425Z,11.02
2022-12-02T09:26:51.260Z,9.63
2022-12-02T09:29:19.086Z,9.82
2022-12-02T09:31:47.072Z,9.60
2022-12-02T09:34:14.876Z,9.18
2022-12-02T09:36:42.669Z,10.95
2022-12-02T09:39:10.628Z,10.27
2022-12-02T09:41:39.230Z,9.95
2022-12-02T09:44:07.119Z,9.70
2022-12-02T09:46:35.836Z,8.68
2022-12-02T09:49:04.416Z,10.18
2022-12-02T09:51:33.788Z,9.70
2022-12-02T09:54:02.788Z,10.82
2022-12-02T09:56:30.662Z,9.63
2022-12-02T09:58:58.762Z,10.10
2022-12-02T10:01:28.010Z,9.73
2022-12-02T10:03:56.552Z,10.02
2022-12-02T10:06:26.563Z,10.32
2022-12-02T10:08:56.578Z,10.32
2022-12-02T10:11:27.512Z,10.35
2022-12-02T10:13:56.531Z,10.82
2022-12-02T10:16:24.437Z,10.50
2022-12-02T10:18:54.518Z,10.38
2022-12-02T10:21:22.408Z,9.10
2022-12-02T10:24:05.750Z,8.93
2022-12-02T10:26:53.822Z,9.23
2022-12-02T10:29:30.388Z,10.57
2022-12-02T10:32:07.130Z,9.60
2022-12-02T10:34:36.580Z,9.73
2022-12-02T10:37:24.024Z,10.20
2022-12-02T10:40:34.564Z,9.55
2022-12-02T10:43:17.973Z,10.57
2022-12-02T10:45:58.296Z,8.75
2022-12-02T10:48:26.258Z,9.82
2022-12-02T10:50:54.153Z,10.55
2022-12-02T10:53:25.725Z,9.25
2022-12-02T10:55:53.556Z,9.05
2022-12-02T10:58:30.661Z,9.30
2022-12-02T11:00:59.310Z,8.57
2022-12-02T11:03:27.423Z,9.75
2022-12-02T11:06:04.812Z,9.20
2022-12-02T11:08:32.588Z,9.02
2022-12-02T11:11:26.953Z,8.98
2022-12-02T11:13:59.086Z,6.95
2022-12-02T11:16:30.174Z,8.63
2022-12-02T11:19:11.332Z,8.43
2022-12-02T11:21:46.023Z,9.05
2022-12-02T11:24:28.415Z,8.50
2022-12-02T11:27:04.853Z,8.48
2022-12-02T11:29:43.061Z,7.90
2022-12-02T11:32:23.190Z,8.05
2022-12-02T11:37:49.049Z,6.55
2022-12-02T11:40:19.894Z,7.90
2022-12-02T11:42:48.113Z,7.22
2022-12-02T11:45:19.729Z,7.63
2022-12-02T11:48:01.134Z,7.82
2022-12-02T11:50:36.989Z,6.85
2022-12-02T11:53:19.477Z,7.60
2022-12-02T11:55:48.846Z,7.32
2022-12-02T11:58:32.961Z,7.05
2022-12-02T12:01:03.882Z,6.70
2022-12-02T12:03:32.461Z,9.27
2022-12-02T12:06:18.074Z,7.30
2022-12-02T12:08:50.919Z,7.78
2022-12-02T12:11:37.759Z,7.03
2022-12-02T12:14:11.801Z,7.43
2022-12-02T12:16:47.912Z,6.53
2022-12-02T12:19:15.658Z,5.80
2022-12-02T12:21:49.119Z,6.72
2022-12-02T12:24:23.830Z,8.05
2022-12-02T12:26:54.550Z,7.18
2022-12-02T12:29:36.590Z,6.95
2022-12-02T12:32:05.424Z,6.97
2022-12-02T12:34:33.532Z,7.63
2022-12-02T12:37:01.439Z,7.30
2022-12-02T12:39:29.514Z,7.45
2022-12-02T12:42:00.379Z,7.30
2022-12-02T12:44:30.964Z,7.22
2022-12-02T12:47:04.570Z,8.43
2022-12-02T12:49:34.044Z,8.23
2022-12-02T12:52:01.993Z,7.93
2022-12-02T12:54:30.090Z,7.45
2022-12-02T12:56:57.933Z,7.47
2022-12-02T12:59:25.841Z,6.38
2022-12-02T13:01:54.242Z,7.38
2022-12-02T13:04:22.298Z,7.82
2022-12-02T13:06:50.297Z,7.63
2022-12-02T13:09:18.241Z,7.18
2022-12-02T13:11:46.143Z,7.90
2022-12-02T13:14:13.847Z,6.75
2022-12-02T13:16:42.042Z,7.03
2022-12-02T13:19:09.948Z,6.38
2022-12-02T13:21:37.989Z,6.35
2022-12-02T13:24:06.103Z,6.72
2022-12-02T13:26:34.129Z,6.55
2022-12-02T13:29:01.965Z,6.85
2022-12-02T13:31:29.855Z,7.38
2022-12-02T13:33:57.682Z,6.10
2022-12-02T13:36:25.584Z,8.00
2022-12-02T13:38:53.611Z,7.25
2022-12-02T13:41:22.695Z,7.90
2022-12-02T13:43:50.683Z,6.95
2022-12-02T13:46:18.497Z,6.57
2022-12-02T13:48:46.405Z,6.35
2022-12-02T13:51:14.315Z,7.72
2022-12-02T13:53:43.807Z,7.63
2022-12-02T13:56:11.676Z,6.40
2022-12-02T13:58:39.562Z,6.75
2022-12-02T14:01:07.366Z,6.72
2022-12-02T14:03:35.319Z,6.57
2022-12-02T14:06:03.298Z,6.38
2022-12-02T14:08:31.060Z,5.55
2022-12-02T14:10:58.876Z,5.68
2022-12-02T14:13:26.498Z,5.78
2022-12-02T14:15:54.400Z,5.72
2022-12-02T14:18:22.379Z,5.30
2022-12-02T14:20:50.061Z,6.07
2022-12-02T14:23:17.780Z,5.97
2022-12-02T14:25:45.537Z,5.28
2022-12-02T14:28:13.566Z,5.85
2022-12-02T14:30:41.535Z,6.07
2022-12-02T14:33:09.717Z,5.20
2022-12-02T14:35:38.046Z,4.68
2022-12-02T14:38:05.858Z,5.10
2022-12-02T14:40:34.883Z,5.15
2022-12-02T14:43:02.826Z,5.18
2022-12-02T14:45:31.035Z,5.07
2022-12-02T14:47:58.873Z,5.15
2022-12-02T14:50:30.366Z,5.40
2022-12-02T14:52:59.270Z,5.70
2022-12-02T14:55:27.236Z,6.05
2022-12-02T14:57:55.046Z,6.25
2022-12-02T15:00:22.969Z,5.72
2022-12-02T15:02:50.815Z,7.35
2022-12-02T15:05:20.865Z,5.97
2022-12-02T15:07:48.802Z,6.68
2022-12-02T15:10:17.300Z,6.15
2022-12-02T15:12:45.167Z,6.63
2022-12-02T15:18:00.883Z,6.53
2022-12-02T15:20:28.747Z,6.78
2022-12-02T15:22:56.836Z,6.82
2022-12-02T15:25:24.826Z,7.20
2022-12-02T15:27:52.722Z,6.43
2022-12-02T15:30:20.885Z,8.05
2022-12-02T15:32:48.885Z,6.10
2022-12-02T15:35:16.831Z,6.60
2022-12-02T15:37:44.850Z,7.32
2022-12-02T15:40:13.765Z,6.78
2022-12-02T15:42:41.660Z,6.07
2022-12-02T15:45:09.794Z,6.80
2022-12-02T15:47:37.653Z,6.57
2022-12-02T15:50:05.997Z,6.72
2022-12-02T15:52:33.715Z,5.88
2022-12-02T15:55:01.565Z,6.43
2022-12-02T15:57:29.305Z,6.95
2022-12-02T15:59:57.087Z,7.28
2022-12-02T16:02:25.183Z,7.03
2022-12-02T16:04:53.343Z,6.10
2022-12-02T16:07:21.467Z,6.30
2022-12-02T16:09:49.468Z,6.38
2022-12-02T16:12:17.471Z,5.95
2022-12-02T16:14:46.112Z,6.22
2022-12-02T16:17:16.201Z,5.87
2022-12-02T16:19:43.971Z,5.32
2022-12-02T16:22:11.756Z,5.65
2022-12-02T16:24:39.626Z,6.45
2022-12-02T16:27:07.549Z,6.00
2022-12-02T16:29:35.347Z,5.82
2022-12-02T16:32:03.302Z,5.35
2022-12-02T16:34:31.168Z,5.47
2022-12-02T16:36:58.981Z,6.65
2022-12-02T16:39:26.748Z,5.13
2022-12-02T16:41:54.627Z,5.30
2022-12-02T16:44:22.456Z,6.53
2022-12-02T16:46:50.456Z,5.28
2022-12-02T16:49:18.267Z,6.05
2022-12-02T16:51:50.717Z,5.57
2022-12-02T16:54:18.629Z,5.97
2022-12-02T16:56:50.048Z,5.40
2022-12-02T16:59:23.209Z,6.00
2022-12-02T17:01:53.670Z,4.80
2022-12-02T17:04:21.793Z,5.28
2022-12-02T17:06:52.014Z,4.90
2022-12-02T17:09:19.699Z,5.00
2022-12-02T17:11:50.525Z,5.82
2022-12-02T17:14:18.347Z,4.80
2022-12-02T17:16:46.122Z,5.28
2022-12-02T17:19:13.890Z,6.97
2022-12-02T17:21:41.583Z,5.10
2022-12-02T17:24:09.535Z,5.22
2022-12-02T17:26:37.378Z,5.60
2022-12-02T17:29:05.117Z,6.72
2022-12-02T17:31:33.574Z,5.20
2022-12-02T17:34:01.534Z,6.30
2022-12-02T17:36:29.710Z,6.22
2022-12-02T17:38:57.825Z,7.05
2022-12-02T17:41:26.749Z,6.63
2022-12-02T17:43:55.215Z,6.53
2022-12-02T17:46:23.273Z,6.80
2022-12-02T17:48:51.359Z,6.75
2022-12-02T17:51:19.257Z,8.35
2022-12-02T17:53:47.255Z,7.22
2022-12-02T17:56:15.090Z,7.18
2022-12-02T17:58:42.952Z,8.02
2022-12-02T18:01:12.346Z,7.15
2022-12-02T18:03:40.744Z,8.55
2022-12-02T18:06:09.196Z,7.90
2022-12-02T18:08:37.550Z,8.55
2022-12-02T18:11:05.639Z,8.15
2022-12-02T18:13:34.860Z,8.48
2022-12-02T18:16:02.657Z,8.65
2022-12-02T18:18:30.453Z,8.48
2022-12-02T18:20:58.254Z,10.70
2022-12-02T18:23:27.897Z,10.50
2022-12-02T18:25:55.958Z,9.13
2022-12-02T18:28:24.848Z,10.63
2022-12-02T18:30:52.803Z,10.68
2022-12-02T18:33:20.648Z,10.35
2022-12-02T18:35:48.556Z,11.18
2022-12-02T18:38:16.298Z,11.73
2022-12-02T18:40:44.000Z,10.50
2022-12-02T18:43:11.741Z,10.38
2022-12-02T18:45:41.291Z,10.45
2022-12-02T18:48:09.005Z,11.55
2022-12-02T18:50:36.712Z,12.68
2022-12-02T18:53:04.786Z,11.60
2022-12-02T18:55:32.746Z,11.50
2022-12-02T18:58:00.633Z,11.50
2022-12-02T19:00:28.451Z,11.23
2022-12-02T19:02:56.292Z,12.00
2022-12-02T19:05:24.112Z,11.27
2022-12-02T19:07:52.314Z,12.75
2022-12-02T19:10:20.363Z,13.95
2022-12-02T19:12:48.096Z,12.75
2022-12-02T19:15:15.918Z,12.50
2022-12-02T19:17:43.662Z,13.73
2022-12-02T19:20:12.079Z,13.27
2022-12-02T19:22:39.899Z,12.80
2022-12-02T19:25:08.365Z,13.73
2022-12-02T19:30:24.060Z,12.13
2022-12-02T19:32:51.874Z,13.77
2022-12-02T19:35:19.717Z,11.95
2022-12-02T19:37:47.432Z,12.05
2022-12-02T19:40:15.232Z,12.15
2022-12-02T19:42:43.129Z,11.57
2022-12-02T19:45:13.099Z,11.52
2022-12-02T19:47:43.429Z,11.05
2022-12-02T19:50:12.709Z,11.73
2022-12-02T19:52:41.417Z,12.07
2022-12-02T19:55:11.314Z,13.38
2022-12-02T19:57:39.421Z,10.77
2022-12-02T20:00:08.897Z,10.30
2022-12-02T20:02:39.666Z,12.10
2022-12-02T20:05:08.602Z,11.82
2022-12-02T20:07:36.724Z,10.93
2022-12-02T20:10:06.024Z,11.90
2022-12-02T20:12:34.060Z,12.60
2022-12-02T20:15:05.950Z,10.73
2022-12-02T20:20:01.262Z,10.73
2022-12-02T20:22:29.048Z,13.80
2022-12-02T20:24:56.726Z,12.23
2022-12-02T20:27:24.481Z,12.70
2022-12-02T20:29:52.598Z,11.43
2022-12-02T20:32:20.653Z,12.23
2022-12-02T20:34:48.610Z,12.65
2022-12-02T20:37:16.440Z,13.85
2022-12-02T20:39:44.408Z,11.65
2022-12-02T20:42:12.529Z,10.48
2022-12-02T20:44:40.245Z,10.65
2022-12-02T20:47:08.023Z,10.90
2022-12-02T20:49:35.996Z,10.52
2022-12-02T20:52:03.971Z,10.15
2022-12-02T20:54:32.158Z,10.90
2022-12-02T20:57:00.080Z,11.57
2022-12-02T20:59:28.136Z,11.65
2022-12-02T21:01:55.928Z,10.55
2022-12-02T21:04:23.682Z,9.73
2022-12-02T21:06:51.388Z,10.57
2022-12-02T21:09:19.161Z,10.05
2022-12-02T21:11:46.954Z,12.55
2022-12-02T21:14:14.932Z,10.93
2022-12-02T21:16:42.880Z,10.07
2022-12-02T21:19:12.192Z,10.88
2022-12-02T21:21:40.021Z,12.50
2022-12-02T21:24:07.852Z,11.27
2022-12-02T21:26:35.642Z,11.13
2022-12-02T21:29:03.359Z,9.88
2022-12-02T21:31:31.190Z,9.90
2022-12-02T21:33:58.956Z,10.25
2022-12-02T21:36:26.770Z,11.38
2022-12-02T21:38:54.950Z,9.32
2022-12-02T21:41:22.825Z,9.57
2022-12-02T21:43:50.863Z,9.85
2022-12-02T21:46:18.596Z,11.32
2022-12-02T21:48:46.453Z,10.52
2022-12-02T21:51:14.141Z,11.32
2022-12-02T21:53:41.819Z,10.18
2022-12-02T21:56:09.767Z,9.88
2022-12-02T21:58:37.626Z,10.43
2022-12-02T22:01:24.296Z,10.50
2022-12-02T22:03:52.383Z,10.60
2022-12-02T22:06:20.177Z,10.93
2022-12-02T22:08:47.839Z,10.63
2022-12-02T22:11:15.525Z,10.18
2022-12-02T22:13:43.434Z,12.40
2022-12-02T22:16:11.377Z,10.10
2022-12-02T22:18:39.187Z,11.50
2022-12-02T22:21:07.060Z,11.50
2022-12-02T22:23:34.979Z,10.00
2022-12-02T22:26:02.897Z,10.07
2022-12-02T22:28:30.928Z,11.80
2022-12-02T22:31:00.666Z,10.45
2022-12-02T22:33:33.164Z,11.32
2022-12-02T22:36:01.567Z,11.05
2022-12-02T22:38:29.636Z,10.65
2022-12-02T22:40:57.441Z,13.73
2022-12-02T22:43:25.525Z,11.20
2022-12-02T22:45:53.575Z,10.82
2022-12-02T22:48:21.497Z,10.73
2022-12-02T22:50:49.270Z,11.23
2022-12-02T22:53:17.361Z,11.52
2022-12-02T22:55:45.237Z,10.25
2022-12-02T22:58:13.009Z,10.23
2022-12-02T23:00:40.828Z,11.32
2022-12-02T23:03:08.740Z,10.98
2022-12-02T23:05:37.174Z,11.15
2022-12-02T23:08:05.250Z,10.85
2022-12-02T23:10:34.415Z,11.15
2022-12-02T23:13:05.003Z,10.05
2022-12-02T23:15:37.034Z,11.32
2022-12-02T23:18:06.451Z,13.63
2022-12-02T23:20:35.025Z,12.70
2022-12-02T23:23:02.840Z,11.60
2022-12-02T23:25:30.805Z,11.88
2022-12-02T23:28:01.657Z,11.45
2022-12-02T23:30:29.924Z,11.18
2022-12-02T23:32:58.656Z,10.73
2022-12-02T23:35:27.232Z,13.27
2022-12-02T23:37:54.969Z,10.20
2022-12-02T23:40:22.940Z,11.45
2022-12-02T23:42:50.728Z,10.60
2022-12-02T23:45:18.739Z,10.75
2022-12-02T23:47:46.732Z,10.55
2022-12-02T23:50:14.637Z,11.25
2022-12-02T23:52:42.486Z,10.18
2022-12-02T23:55:11.173Z,13.23
2022-12-02T23:57:39.462Z,10.05
